Time;durP1;ratioP1;P1;durP2;ratioP2;P2;SDS_P1;SDS_P2;PMS_P1;PMS_P2;Temp;Humidity;BMP_temperature;BMP_pressure;BME280_temperature;BME280_humidity;BME280_pressure;Samples;Min_cycle;Max_cycle;Signal;HPM_P1;HPM_P2
2022/07/22 00:01:59;;;;;;;0.00;0.00;;;20.80;99.90;;;;;;5015405;27;20453;-77
2022/07/22 00:04:27;;;;;;;0.00;0.00;;;20.80;99.90;;;;;;5016898;28;20955;-76
2022/07/22 00:06:55;;;;;;;0.00;0.00;;;20.80;99.90;;;;;;5016134;28;20457;-77
2022/07/22 00:09:25;;;;;;;0.00;0.00;;;20.80;99.90;;;;;;5017196;28;20896;-78
2022/07/22 00:11:53;;;;;;;0.00;0.00;;;20.80;99.90;;;;;;5017905;28;20456;-75
2022/07/22 00:14:21;;;;;;;0.00;0.00;;;20.70;99.90;;;;;;5017203;28;20452;-75
2022/07/22 00:16:49;;;;;;;0.00;0.00;;;20.70;99.90;;;;;;5016340;28;20433;-76
2022/07/22 00:19:17;;;;;;;0.00;0.00;;;20.70;99.90;;;;;;5016399;28;20452;-76
2022/07/22 00:21:46;;;;;;;0.00;0.00;;;20.70;99.90;;;;;;5017773;28;20600;-75
2022/07/22 00:24:13;;;;;;;0.00;0.00;;;20.70;99.90;;;;;;5017920;28;20460;-75
2022/07/22 00:26:43;;;;;;;0.00;0.00;;;20.60;99.90;;;;;;5017782;27;20457;-79
2022/07/22 00:29:11;;;;;;;0.00;0.00;;;20.60;99.90;;;;;;5018184;28;20870;-78
2022/07/22 00:31:39;;;;;;;0.00;0.00;;;20.40;99.90;;;;;;5020516;28;20622;-77
2022/07/22 00:34:06;;;;;;;0.00;0.00;;;20.30;99.90;;;;;;5019357;28;21035;-77
2022/07/22 00:36:35;;;;;;;0.00;0.00;;;20.20;99.90;;;;;;5019218;28;20711;-78
2022/07/22 00:39:03;;;;;;;0.00;0.00;;;20.00;99.90;;;;;;5019613;28;21026;-76
2022/07/22 00:41:31;;;;;;;0.00;0.00;;;19.90;99.90;;;;;;5021636;28;20464;-82
2022/07/22 00:44:07;;;;;;;0.00;0.00;;;19.80;99.90;;;;;;5025238;28;21059;-83
2022/07/22 00:46:38;;;;;;;0.00;0.00;;;19.60;99.90;;;;;;5023870;28;20452;-81
2022/07/22 00:49:08;;;;;;;0.00;0.00;;;19.50;99.90;;;;;;5020210;28;20477;-80
2022/07/22 00:51:37;;;;;;;0.00;0.00;;;19.30;99.90;;;;;;5019363;28;20539;-77
2022/07/22 00:54:05;;;;;;;0.00;0.00;;;19.20;99.90;;;;;;5018528;28;20975;-77
2022/07/22 00:56:33;;;;;;;0.00;0.00;;;19.10;99.90;;;;;;5018448;28;20535;-76
2022/07/22 00:59:05;;;;;;;0.00;0.00;;;19.10;99.90;;;;;;5017943;28;20593;-75
2022/07/22 01:01:33;;;;;;;0.00;0.00;;;19.00;99.90;;;;;;5018519;28;21010;-77
2022/07/22 01:04:02;;;;;;;0.00;0.00;;;18.90;99.90;;;;;;5017600;28;20498;-76
2022/07/22 01:06:31;;;;;;;0.00;0.00;;;18.80;99.90;;;;;;5019701;28;20526;-76
2022/07/22 01:08:59;;;;;;;0.00;0.00;;;18.70;99.90;;;;;;5019392;28;20475;-77
2022/07/22 01:11:28;;;;;;;0.00;0.00;;;18.60;99.90;;;;;;5020337;28;20472;-78
2022/07/22 01:13:57;;;;;;;0.00;0.00;;;18.50;99.90;;;;;;5020536;28;20455;-78
2022/07/22 01:16:27;;;;;;;0.00;0.00;;;18.40;99.90;;;;;;5019014;28;20969;-76
2022/07/22 01:18:55;;;;;;;0.00;0.00;;;18.40;99.90;;;;;;5020467;28;20552;-78
2022/07/22 01:21:25;;;;;;;0.00;0.00;;;18.40;99.90;;;;;;5025927;28;20503;-78
2022/07/22 01:23:53;;;;;;;0.00;0.00;;;18.30;99.90;;;;;;5025087;28;20453;-80
2022/07/22 01:26:21;;;;;;;0.00;0.00;;;18.20;99.90;;;;;;5023794;28;20526;-82
2022/07/22 01:28:49;;;;;;;0.00;0.00;;;18.00;99.90;;;;;;5019615;28;20516;-74
2022/07/22 01:31:17;;;;;;;0.00;0.00;;;17.90;99.90;;;;;;5018152;28;20446;-75
2022/07/22 01:33:45;;;;;;;0.00;0.00;;;17.90;99.90;;;;;;5018478;28;20542;-74
2022/07/22 01:36:13;;;;;;;0.00;0.00;;;17.70;99.90;;;;;;5018647;28;20444;-72
2022/07/22 01:38:42;;;;;;;0.00;0.00;;;17.70;99.90;;;;;;5018606;28;20771;-73
2022/07/22 01:41:10;;;;;;;0.00;0.00;;;17.60;99.90;;;;;;5017808;28;20451;-73
2022/07/22 01:43:38;;;;;;;0.00;0.00;;;17.60;99.90;;;;;;5017828;28;20442;-73
2022/07/22 01:46:06;;;;;;;0.00;0.00;;;17.40;99.90;;;;;;5024344;28;20447;-72
2022/07/22 01:48:34;;;;;;;0.00;0.00;;;17.30;99.90;;;;;;5042674;28;20461;-72
2022/07/22 01:51:02;;;;;;;0.00;0.00;;;17.20;99.90;;;;;;5024159;28;20473;-74
2022/07/22 01:53:30;;;;;;;0.00;0.00;;;17.20;99.90;;;;;;5017738;28;20445;-73
2022/07/22 01:55:59;;;;;;;0.00;0.00;;;17.10;99.90;;;;;;5017346;28;20448;-74
2022/07/22 01:58:27;;;;;;;0.00;0.00;;;17.10;99.90;;;;;;5017714;28;20829;-74
2022/07/22 02:00:55;;;;;;;0.00;0.00;;;17.10;99.90;;;;;;5017364;28;20434;-73
2022/07/22 02:03:23;;;;;;;0.00;0.00;;;17.00;99.90;;;;;;5019480;27;20562;-74
2022/07/22 02:05:50;;;;;;;0.00;0.00;;;17.00;99.90;;;;;;5018935;28;20463;-73
2022/07/22 02:08:18;;;;;;;0.00;0.00;;;17.00;99.90;;;;;;5018929;28;20457;-73
2022/07/22 02:10:46;;;;;;;0.00;0.00;;;17.00;99.90;;;;;;5017869;28;20876;-74
2022/07/22 02:13:16;;;;;;;0.00;0.00;;;17.00;99.90;;;;;;5016941;28;20450;-74
2022/07/22 02:15:43;;;;;;;0.00;0.00;;;17.00;99.90;;;;;;5017127;28;20449;-73
2022/07/22 02:21:26;;;;;;;0.00;0.00;;;17.00;99.90;;;;;;5630047;23;20487;-90
2022/07/22 02:23:54;;;;;;;0.00;0.00;;;17.10;99.90;;;;;;4950916;28;20472;-89
2022/07/22 02:26:22;;;;;;;0.00;0.00;;;17.10;99.90;;;;;;4946872;28;20552;-90
2022/07/22 02:28:51;;;;;;;0.00;0.00;;;17.00;99.90;;;;;;4945782;28;20460;-90
2022/07/22 02:31:20;;;;;;;0.00;0.00;;;17.00;99.90;;;;;;4946069;28;20568;-90
2022/07/22 02:33:48;;;;;;;0.00;0.00;;;17.10;99.90;;;;;;4945240;28;20587;-89
2022/07/22 02:36:17;;;;;;;0.00;0.00;;;17.10;99.90;;;;;;4946164;29;20441;-91
2022/07/22 02:38:46;;;;;;;0.00;0.00;;;17.10;99.90;;;;;;4945194;29;20507;-88
2022/07/22 02:41:14;;;;;;;0.00;0.00;;;17.20;99.90;;;;;;4943582;28;20536;-89
2022/07/22 02:43:42;;;;;;;0.00;0.00;;;17.10;99.90;;;;;;4943753;28;20507;-90
2022/07/22 02:46:11;;;;;;;0.00;0.00;;;17.20;99.90;;;;;;4947129;28;20453;-89
2022/07/22 02:48:39;;;;;;;0.00;0.00;;;17.10;99.90;;;;;;4947065;28;20458;-90
2022/07/22 02:51:07;;;;;;;0.00;0.00;;;17.10;99.90;;;;;;4948145;28;20486;-90
2022/07/22 02:53:35;;;;;;;0.00;0.00;;;17.20;99.90;;;;;;4946974;29;20543;-90
2022/07/22 02:56:03;;;;;;;0.00;0.00;;;17.20;99.90;;;;;;4949346;28;20483;-89
2022/07/22 02:58:31;;;;;;;0.00;0.00;;;17.20;99.90;;;;;;4947079;28;20703;-89
2022/07/22 03:00:59;;;;;;;0.00;0.00;;;17.20;99.90;;;;;;4947281;28;20772;-89
2022/07/22 03:03:29;;;;;;;0.00;0.00;;;17.20;99.90;;;;;;4946934;28;20469;-90
2022/07/22 03:05:57;;;;;;;0.00;0.00;;;17.30;99.90;;;;;;4946785;28;20771;-88
2022/07/22 03:08:26;;;;;;;0.00;0.00;;;17.20;99.90;;;;;;4945702;28;20893;-89
2022/07/22 03:10:54;;;;;;;0.00;0.00;;;17.30;99.90;;;;;;4947912;29;20554;-88
2022/07/22 03:13:22;;;;;;;0.00;0.00;;;17.20;99.90;;;;;;4946178;28;20959;-87
2022/07/22 03:15:50;;;;;;;0.00;0.00;;;17.30;99.90;;;;;;4946073;28;20481;-88
2022/07/22 03:18:18;;;;;;;0.00;0.00;;;17.20;99.90;;;;;;4947764;28;20465;-88
2022/07/22 03:20:47;;;;;;;0.00;0.00;;;17.20;99.90;;;;;;4947045;28;20544;-89
2022/07/22 03:23:16;;;;;;;0.00;0.00;;;17.20;99.90;;;;;;4947149;28;21011;-88
2022/07/22 03:25:44;;;;;;;0.00;0.00;;;17.20;99.90;;;;;;4947665;28;20448;-89
2022/07/22 03:28:12;;;;;;;0.00;0.00;;;17.20;99.90;;;;;;4948122;28;20529;-88
2022/07/22 03:30:40;;;;;;;0.00;0.00;;;17.20;99.90;;;;;;4948661;28;20934;-90
2022/07/22 03:33:08;;;;;;;0.00;0.00;;;17.30;99.90;;;;;;4955703;28;21096;-87
2022/07/22 03:35:36;;;;;;;0.00;0.00;;;17.30;99.90;;;;;;4953293;28;20948;-86
2022/07/22 03:38:05;;;;;;;0.00;0.00;;;17.40;99.90;;;;;;4945245;28;20734;-89
2022/07/22 03:40:33;;;;;;;0.00;0.00;;;17.30;99.90;;;;;;4944731;28;21088;-89
2022/07/22 03:43:01;;;;;;;0.00;0.00;;;17.40;99.90;;;;;;4939983;28;20990;-87
2022/07/22 03:45:29;;;;;;;0.00;0.00;;;17.40;99.90;;;;;;4924929;28;20474;-87
2022/07/22 03:47:57;;;;;;;0.00;0.00;;;17.40;99.90;;;;;;4925206;28;20559;-88
2022/07/22 03:50:25;;;;;;;0.00;0.00;;;17.30;99.90;;;;;;4925002;28;21049;-87
2022/07/22 03:52:53;;;;;;;0.00;0.00;;;17.40;99.90;;;;;;4925396;28;20727;-87
2022/07/22 03:55:22;;;;;;;0.00;0.00;;;17.40;99.90;;;;;;4925104;28;20542;-88
2022/07/22 03:57:50;;;;;;;0.00;0.00;;;17.50;99.90;;;;;;4925352;28;20557;-88
2022/07/22 04:00:18;;;;;;;0.00;0.00;;;17.50;99.90;;;;;;4926614;28;20814;-87
2022/07/22 04:02:46;;;;;;;0.00;0.00;;;17.40;99.90;;;;;;4924534;28;20475;-86
2022/07/22 04:05:14;;;;;;;0.00;0.00;;;17.40;99.90;;;;;;4926827;28;20454;-86
2022/07/22 04:07:42;;;;;;;0.00;0.00;;;17.40;99.90;;;;;;4927836;28;20525;-87
2022/07/22 04:10:10;;;;;;;0.00;0.00;;;17.40;99.90;;;;;;4927807;28;20461;-87
2022/07/22 04:12:40;;;;;;;0.00;0.00;;;17.40;99.90;;;;;;4932238;28;20952;-87
2022/07/22 04:15:10;;;;;;;0.00;0.00;;;17.40;99.90;;;;;;4937363;28;20520;-88
2022/07/22 04:17:37;;;;;;;0.00;0.00;;;17.50;99.90;;;;;;4941155;28;20445;-88
2022/07/22 04:20:07;;;;;;;0.00;0.00;;;17.40;99.90;;;;;;4946551;28;20882;-88
2022/07/22 04:22:34;;;;;;;0.00;0.00;;;17.50;99.90;;;;;;4946411;28;20884;-85
2022/07/22 04:25:03;;;;;;;0.00;0.00;;;17.50;99.90;;;;;;4943990;28;20554;-87
2022/07/22 04:27:31;;;;;;;0.00;0.00;;;17.50;99.90;;;;;;4952543;28;20446;-87
2022/07/22 04:30:00;;;;;;;0.00;0.00;;;17.60;99.90;;;;;;4953209;28;20453;-87
2022/07/22 04:32:29;;;;;;;0.00;0.00;;;17.60;99.90;;;;;;4957330;28;20508;-86
2022/07/22 04:34:57;;;;;;;0.00;0.00;;;17.60;99.90;;;;;;4960408;28;20896;-88
2022/07/22 04:37:25;;;;;;;0.00;0.00;;;17.50;99.90;;;;;;4950446;28;20461;-88
2022/07/22 04:39:52;;;;;;;0.00;0.00;;;17.50;99.90;;;;;;4948795;29;20617;-88
2022/07/22 04:42:20;;;;;;;0.00;0.00;;;17.50;99.90;;;;;;4951226;28;21064;-87
2022/07/22 04:44:48;;;;;;;0.00;0.00;;;17.60;99.90;;;;;;4944570;28;20745;-87
2022/07/22 04:47:20;;;;;;;0.00;0.00;;;17.50;99.90;;;;;;4945863;28;20460;-88
2022/07/22 04:49:48;;;;;;;0.00;0.00;;;17.50;99.90;;;;;;4951008;28;20476;-87
2022/07/22 04:52:16;;;;;;;0.00;0.00;;;17.50;99.90;;;;;;4938036;28;21046;-87
2022/07/22 04:54:45;;;;;;;0.00;0.00;;;17.50;99.90;;;;;;4942200;28;20458;-86
2022/07/22 04:57:13;;;;;;;0.00;0.00;;;17.60;99.90;;;;;;4945563;28;20499;-86
2022/07/22 04:59:41;;;;;;;0.00;0.00;;;17.60;99.90;;;;;;4942824;29;20451;-88
2022/07/22 05:02:09;;;;;;;0.00;0.00;;;17.50;99.90;;;;;;4939107;28;20590;-85
2022/07/22 05:04:38;;;;;;;0.00;0.00;;;17.50;99.90;;;;;;4944551;28;20462;-86
2022/07/22 05:07:06;;;;;;;0.00;0.00;;;17.60;99.90;;;;;;4944247;29;20713;-84
2022/07/22 05:09:37;;;;;;;0.00;0.00;;;17.50;99.90;;;;;;4951548;28;20448;-86
2022/07/22 05:12:05;;;;;;;0.00;0.00;;;17.50;99.90;;;;;;4945135;28;20486;-87
2022/07/22 05:14:33;;;;;;;0.00;0.00;;;17.40;99.90;;;;;;4936821;28;20455;-86
2022/07/22 05:17:01;;;;;;;0.00;0.00;;;17.50;99.90;;;;;;4932187;28;20439;-84
2022/07/22 05:19:40;;;;;;;0.00;0.00;;;17.50;99.90;;;;;;4933117;28;20458;-85
2022/07/22 05:22:08;;;;;;;0.00;0.00;;;17.40;99.90;;;;;;4937287;28;20481;-86
2022/07/22 05:24:36;;;;;;;0.00;0.00;;;17.40;99.90;;;;;;4942489;28;20493;-85
2022/07/22 05:27:04;;;;;;;0.00;0.00;;;17.40;99.90;;;;;;4931690;29;20442;-88
2022/07/22 05:29:32;;;;;;;0.00;0.00;;;17.20;99.90;;;;;;4936964;28;20538;-87
2022/07/22 05:32:00;;;;;;;0.00;0.00;;;17.10;99.90;;;;;;4942954;29;20589;-86
2022/07/22 05:34:28;;;;;;;0.00;0.00;;;17.00;99.90;;;;;;4950302;28;20524;-88
2022/07/22 05:36:57;;;;;;;0.00;0.00;;;16.90;99.90;;;;;;4955318;28;20763;-87
2022/07/22 05:39:25;;;;;;;0.00;0.00;;;16.90;99.90;;;;;;4950940;28;20461;-87
2022/07/22 05:41:53;;;;;;;0.00;0.00;;;16.90;99.90;;;;;;4950005;28;21023;-84
2022/07/22 05:44:23;;;;;;;0.00;0.00;;;16.90;99.90;;;;;;4949695;28;20453;-87
2022/07/22 05:46:51;;;;;;;0.00;0.00;;;16.90;99.90;;;;;;4942028;28;20478;-86
2022/07/22 05:49:19;;;;;;;0.00;0.00;;;17.00;99.90;;;;;;4931276;28;20443;-86
2022/07/22 05:51:47;;;;;;;0.00;0.00;;;17.10;99.90;;;;;;4932069;29;20475;-89
2022/07/22 05:54:16;;;;;;;0.00;0.00;;;17.20;99.90;;;;;;4932965;29;20888;-88
2022/07/22 05:56:44;;;;;;;0.00;0.00;;;17.30;99.90;;;;;;4933555;28;20455;-86
2022/07/22 05:59:12;;;;;;;0.00;0.00;;;17.20;99.90;;;;;;4936305;29;20462;-86
2022/07/22 06:01:40;;;;;;;0.00;0.00;;;17.30;99.90;;;;;;4931849;28;20463;-89
2022/07/22 06:04:08;;;;;;;0.00;0.00;;;17.30;99.90;;;;;;4931360;28;21034;-87
2022/07/22 06:06:36;;;;;;;0.00;0.00;;;17.30;99.90;;;;;;4933201;28;20442;-88
2022/07/22 06:09:04;;;;;;;0.00;0.00;;;17.30;99.90;;;;;;4936643;28;20454;-88
2022/07/22 06:11:33;;;;;;;0.00;0.00;;;17.30;99.90;;;;;;4951372;28;20481;-88
2022/07/22 06:14:02;;;;;;;0.00;0.00;;;17.40;99.90;;;;;;4952142;29;20477;-90
2022/07/22 06:16:32;;;;;;;0.00;0.00;;;17.40;99.90;;;;;;4952659;28;20477;-88
2022/07/22 06:19:19;;;;;;;0.00;0.00;;;17.50;99.90;;;;;;4952792;28;20459;-83
2022/07/22 06:21:47;;;;;;;0.00;0.00;;;17.50;99.90;;;;;;4950190;28;20469;-87
2022/07/22 06:24:15;;;;;;;0.00;0.00;;;17.70;99.90;;;;;;4950309;28;20935;-88
2022/07/22 06:26:48;;;;;;;0.00;0.00;;;17.70;99.90;;;;;;4947901;28;20987;-84
2022/07/22 06:29:19;;;;;;;0.00;0.00;;;17.80;99.90;;;;;;4945881;28;20456;-86
2022/07/22 06:31:49;;;;;;;0.00;0.00;;;17.90;99.90;;;;;;4953439;28;20451;-87
2022/07/22 06:34:17;;;;;;;0.00;0.00;;;17.90;99.90;;;;;;4952170;28;21166;-86
2022/07/22 06:36:46;;;;;;;0.00;0.00;;;18.00;99.90;;;;;;4950501;28;20472;-86
2022/07/22 06:39:14;;;;;;;0.00;0.00;;;18.10;99.90;;;;;;4957407;28;20455;-86
2022/07/22 06:41:44;;;;;;;0.00;0.00;;;18.10;99.90;;;;;;4959157;28;20427;-88
2022/07/22 06:44:13;;;;;;;0.00;0.00;;;18.20;99.90;;;;;;4960429;28;20463;-86
2022/07/22 06:46:41;;;;;;;0.00;0.00;;;18.30;99.90;;;;;;4949910;28;20485;-86
2022/07/22 06:49:10;;;;;;;0.00;0.00;;;18.50;99.90;;;;;;4947403;28;20486;-86
2022/07/22 06:51:40;;;;;;;0.00;0.00;;;18.70;99.90;;;;;;4950062;28;20448;-87
2022/07/22 06:54:08;;;;;;;0.00;0.00;;;18.80;99.90;;;;;;4973901;28;20470;-86
2022/07/22 06:56:36;;;;;;;0.00;0.00;;;18.80;99.90;;;;;;5010614;28;20452;-90
2022/07/22 07:02:21;;;;;;;0.00;0.00;;;19.00;99.90;;;;;;4991927;28;20661;-85
2022/07/22 07:04:54;;;;;;;0.00;0.00;;;19.20;99.90;;;;;;5000130;28;20544;-87
2022/07/22 07:07:29;;;;;;;0.00;0.00;;;19.20;99.90;;;;;;5009312;28;20740;-89
2022/07/22 07:13:34;;;;;;;0.00;0.00;;;19.30;99.90;;;;;;5027014;28;20587;-88
2022/07/22 07:16:27;;;;;;;0.00;0.00;;;19.30;99.90;;;;;;4997419;28;20455;-88
2022/07/22 07:18:55;;;;;;;0.00;0.00;;;19.30;99.90;;;;;;4980164;28;20443;-87
2022/07/22 07:21:24;;;;;;;0.00;0.00;;;19.40;99.90;;;;;;4984643;28;20798;-88
2022/07/22 07:23:54;;;;;;;0.00;0.00;;;19.50;99.90;;;;;;5011572;28;20499;-89
2022/07/22 07:26:25;;;;;;;0.00;0.00;;;19.50;99.90;;;;;;4991815;28;20655;-88
2022/07/22 07:29:02;;;;;;;0.00;0.00;;;19.50;99.90;;;;;;4998052;28;20453;-87
2022/07/22 07:31:53;;;;;;;0.00;0.00;;;19.50;99.90;;;;;;4953652;28;20553;-87
2022/07/22 07:34:21;;;;;;;0.00;0.00;;;19.30;99.90;;;;;;4940232;28;20538;-85
2022/07/22 07:36:49;;;;;;;0.00;0.00;;;19.30;99.90;;;;;;4941720;28;20553;-85
2022/07/22 07:39:17;;;;;;;0.00;0.00;;;19.40;99.90;;;;;;4945339;28;20634;-87
2022/07/22 07:41:45;;;;;;;0.00;0.00;;;19.40;99.90;;;;;;4946356;28;20496;-86
2022/07/22 07:44:22;;;;;;;0.00;0.00;;;19.30;99.90;;;;;;4946460;28;20449;-87
2022/07/22 07:46:53;;;;;;;0.00;0.00;;;19.40;99.90;;;;;;4972478;28;20693;-88
2022/07/22 07:49:27;;;;;;;0.00;0.00;;;19.50;99.90;;;;;;5047563;28;20510;-86
2022/07/22 07:51:57;;;;;;;0.00;0.00;;;19.60;99.90;;;;;;5047050;28;20495;-85
2022/07/22 07:54:25;;;;;;;0.00;0.00;;;19.60;99.90;;;;;;5053213;28;20634;-85
2022/07/22 07:57:04;;;;;;;0.00;0.00;;;19.70;99.90;;;;;;5056201;28;20452;-85
2022/07/22 07:59:34;;;;;;;0.00;0.00;;;19.80;99.90;;;;;;5046904;28;20728;-86
2022/07/22 08:02:05;;;;;;;0.00;0.00;;;19.80;99.90;;;;;;5047701;28;20464;-87
2022/07/22 08:04:36;;;;;;;0.00;0.00;;;19.80;99.90;;;;;;5048589;28;20451;-86
2022/07/22 08:07:12;;;;;;;0.00;0.00;;;19.80;99.90;;;;;;5048330;28;20578;-88
2022/07/22 08:09:58;;;;;;;0.00;0.00;;;19.80;99.90;;;;;;5048420;28;20456;-85
2022/07/22 08:15:38;;;;;;;0.00;0.00;;;19.60;99.90;;;;;;4940498;28;20844;-85
2022/07/22 08:18:08;;;;;;;0.00;0.00;;;19.50;99.90;;;;;;4942543;29;21183;-84
2022/07/22 08:20:36;;;;;;;0.00;0.00;;;19.50;99.90;;;;;;4933659;28;20459;-87
2022/07/22 08:23:07;;;;;;;0.00;0.00;;;19.50;99.90;;;;;;4959598;28;20487;-84
2022/07/22 08:25:35;;;;;;;0.00;0.00;;;19.60;99.90;;;;;;5011291;28;20425;-86
2022/07/22 08:28:04;;;;;;;0.00;0.00;;;19.60;99.90;;;;;;5006506;28;20837;-87
2022/07/22 08:30:33;;;;;;;0.00;0.00;;;19.80;99.90;;;;;;4982040;28;20445;-88
2022/07/22 08:33:01;;;;;;;0.00;0.00;;;19.80;99.90;;;;;;4956608;28;20573;-85
2022/07/22 08:35:31;;;;;;;0.00;0.00;;;19.90;99.90;;;;;;4938872;28;20572;-88
2022/07/22 08:38:01;;;;;;;0.00;0.00;;;19.90;99.90;;;;;;4937340;28;20969;-87
2022/07/22 08:40:29;;;;;;;0.00;0.00;;;20.10;99.90;;;;;;5050762;28;20440;-85
2022/07/22 08:43:07;;;;;;;0.00;0.00;;;20.30;99.90;;;;;;4999304;28;20535;-89
2022/07/22 08:45:37;;;;;;;0.00;0.00;;;20.40;99.90;;;;;;4991657;28;20465;-89
2022/07/22 08:48:05;;;;;;;0.00;0.00;;;20.50;99.90;;;;;;5032192;28;20468;-87
2022/07/22 08:50:39;;;;;;;0.00;0.00;;;20.60;99.90;;;;;;5004326;28;20488;-87
2022/07/22 08:53:10;;;;;;;0.00;0.00;;;20.70;99.90;;;;;;4978420;28;21103;-87
2022/07/22 08:55:43;;;;;;;0.00;0.00;;;20.80;99.90;;;;;;4978420;28;20463;-87
2022/07/22 08:58:33;;;;;;;0.00;0.00;;;20.80;99.90;;;;;;4928101;28;20480;-90
2022/07/22 09:03:58;;;;;;;0.00;0.00;;;20.40;99.90;;;;;;4939692;28;20466;-88
2022/07/22 09:06:49;;;;;;;0.00;0.00;;;20.40;99.90;;;;;;4935756;28;20858;-85
2022/07/22 09:09:17;;;;;;;0.00;0.00;;;20.40;99.90;;;;;;4931020;28;20442;-89
2022/07/22 09:11:45;;;;;;;0.00;0.00;;;20.50;99.90;;;;;;4931093;28;21173;-88
2022/07/22 09:17:07;;;;;;;0.00;0.00;;;20.70;99.90;;;;;;4926224;28;20520;-87
2022/07/22 09:19:35;;;;;;;0.00;0.00;;;20.90;99.90;;;;;;4932067;28;20468;-88
2022/07/22 09:22:17;;;;;;;0.00;0.00;;;21.00;99.90;;;;;;4936947;28;20591;-87
2022/07/22 09:24:45;;;;;;;0.00;0.00;;;21.10;99.90;;;;;;4945522;28;20480;-87
2022/07/22 09:27:24;;;;;;;0.00;0.00;;;21.30;99.90;;;;;;4980657;28;20484;-90
2022/07/22 09:29:56;;;;;;;0.00;0.00;;;21.50;99.90;;;;;;4985843;28;20440;-88
2022/07/22 09:32:24;;;;;;;0.00;0.00;;;21.70;99.90;;;;;;4973774;28;21121;-90
2022/07/22 09:35:03;;;;;;;0.00;0.00;;;21.60;99.90;;;;;;4986977;28;20480;-88
2022/07/22 09:37:33;;;;;;;0.00;0.00;;;21.50;99.90;;;;;;4993953;28;20523;-89
2022/07/22 09:40:13;;;;;;;0.00;0.00;;;21.50;99.90;;;;;;5019878;28;20512;-89
2022/07/22 09:42:48;;;;;;;0.00;0.00;;;21.40;99.90;;;;;;5040501;28;20460;-90
2022/07/22 09:45:17;;;;;;;0.00;0.00;;;21.40;99.90;;;;;;5012282;28;20448;-90
2022/07/22 09:47:46;;;;;;;0.00;0.00;;;21.20;99.90;;;;;;5047273;28;20514;-90
2022/07/22 09:50:27;;;;;;;0.00;0.00;;;21.20;99.90;;;;;;5024436;28;20475;-90
2022/07/22 09:52:57;;;;;;;0.00;0.00;;;21.30;99.90;;;;;;5048406;28;20841;-89
2022/07/22 09:55:33;;;;;;;0.00;0.00;;;21.50;99.90;;;;;;4994663;28;20482;-89
2022/07/22 09:58:01;;;;;;;0.00;0.00;;;21.50;99.90;;;;;;5039190;28;20524;-90
2022/07/22 10:00:29;;;;;;;0.00;0.00;;;21.60;99.90;;;;;;5036419;28;20517;-91
2022/07/22 10:02:59;;;;;;;0.00;0.00;;;21.70;99.90;;;;;;5005669;28;20495;-89
2022/07/22 10:05:29;;;;;;;0.00;0.00;;;21.60;99.90;;;;;;5031733;28;20445;-88
2022/07/22 10:08:01;;;;;;;0.00;0.00;;;21.50;99.90;;;;;;4967220;28;20480;-90
2022/07/22 10:10:31;;;;;;;0.00;0.00;;;21.50;99.90;;;;;;5013581;28;20476;-89
2022/07/22 10:13:01;;;;;;;0.00;0.00;;;21.60;99.90;;;;;;5024700;28;20555;-89
2022/07/22 10:15:31;;;;;;;0.00;0.00;;;21.60;99.90;;;;;;5010867;28;20912;-89
2022/07/22 10:18:06;;;;;;;0.00;0.00;;;21.80;99.90;;;;;;5002546;28;20456;-88
2022/07/22 10:20:36;;;;;;;0.00;0.00;;;21.80;99.90;;;;;;4998773;28;20460;-89
2022/07/22 10:23:07;;;;;;;0.00;0.00;;;21.70;99.90;;;;;;4952082;28;20494;-88
2022/07/22 10:25:52;;;;;;;0.00;0.00;;;21.50;99.90;;;;;;5013743;28;20940;-87
2022/07/22 10:28:25;;;;;;;0.00;0.00;;;21.50;99.90;;;;;;5036843;28;20475;-88
2022/07/22 10:30:54;;;;;;;0.00;0.00;;;21.30;99.90;;;;;;4944718;28;20498;-89
2022/07/22 10:33:22;;;;;;;0.00;0.00;;;21.10;99.90;;;;;;4948192;28;20538;-87
2022/07/22 10:35:56;;;;;;;0.00;0.00;;;21.00;99.90;;;;;;4947492;28;20870;-89
2022/07/22 10:38:27;;;;;;;0.00;0.00;;;20.90;99.90;;;;;;4948350;28;20548;-89
2022/07/22 10:40:56;;;;;;;0.00;0.00;;;20.80;99.90;;;;;;4950212;28;20552;-88
2022/07/22 10:43:26;;;;;;;0.00;0.00;;;20.80;99.90;;;;;;4948055;28;20581;-89
2022/07/22 10:45:56;;;;;;;0.00;0.00;;;20.90;99.90;;;;;;4948682;28;20480;-89
2022/07/22 10:48:26;;;;;;;0.00;0.00;;;21.10;99.90;;;;;;4948590;28;20464;-89
2022/07/22 10:51:06;;;;;;;0.00;0.00;;;21.20;99.90;;;;;;4948467;28;20960;-90
2022/07/22 10:53:54;;;;;;;0.00;0.00;;;21.30;99.90;;;;;;4951721;28;21017;-89
2022/07/22 10:56:26;;;;;;;0.00;0.00;;;21.40;99.90;;;;;;4949178;28;21075;-90
2022/07/22 10:59:14;;;;;;;0.00;0.00;;;21.40;99.90;;;;;;4949721;28;20512;-90
2022/07/22 11:01:46;;;;;;;0.00;0.00;;;21.40;99.90;;;;;;4948768;28;20498;-89
2022/07/22 11:04:17;;;;;;;0.00;0.00;;;21.30;99.90;;;;;;4935119;28;20478;-90
2022/07/22 11:06:47;;;;;;;0.00;0.00;;;21.40;99.90;;;;;;4930970;28;20486;-90
2022/07/22 11:09:18;;;;;;;0.00;0.00;;;21.50;99.90;;;;;;4930792;28;20996;-90
2022/07/22 11:11:49;;;;;;;0.00;0.00;;;21.70;99.90;;;;;;4930333;28;20478;-90
2022/07/22 11:14:26;;;;;;;0.00;0.00;;;21.80;99.90;;;;;;4930075;28;20485;-90
2022/07/22 11:16:56;;;;;;;0.00;0.00;;;21.90;99.90;;;;;;4949609;28;20438;-91
2022/07/22 11:19:26;;;;;;;0.00;0.00;;;21.90;99.90;;;;;;4950595;28;20482;-90
2022/07/22 11:21:56;;;;;;;0.00;0.00;;;21.90;99.90;;;;;;4957170;28;20479;-90
2022/07/22 11:24:27;;;;;;;0.00;0.00;;;22.00;99.90;;;;;;4967882;28;20492;-89
2022/07/22 11:27:30;;;;;;;0.00;0.00;;;22.10;99.90;;;;;;4951817;28;20489;-88
2022/07/22 11:34:22;;;;;;;;;;;;;;;;;;;;;
2022/07/22 11:37:32;;;;;;;0.00;0.00;;;22.00;99.90;;;;;;4857315;29;20456;-89
2022/07/22 11:44:33;;;;;;;0.00;0.00;;;21.90;99.90;;;;;;4958952;28;20465;-85
2022/07/22 11:47:25;;;;;;;0.00;0.00;;;21.90;99.90;;;;;;4970930;28;20467;-89
2022/07/22 11:50:13;;;;;;;0.00;0.00;;;22.00;99.90;;;;;;4988054;28;20485;-89
2022/07/22 11:52:52;;;;;;;0.00;0.00;;;22.00;99.90;;;;;;5019803;22;20967;-68
2022/07/22 11:55:20;;;;;;;0.00;0.00;;;22.00;99.90;;;;;;5041964;28;20856;-68
2022/07/22 11:57:48;;;;;;;0.00;0.00;;;22.10;99.90;;;;;;5029691;28;21027;-68
2022/07/22 12:00:19;;;;;;;0.00;0.00;;;22.20;99.90;;;;;;5016608;28;20845;-70
2022/07/22 12:02:47;;;;;;;0.00;0.00;;;22.20;99.90;;;;;;5016057;28;20949;-69
2022/07/22 12:05:15;;;;;;;0.00;0.00;;;22.20;99.90;;;;;;5016560;28;20449;-70
2022/07/22 12:08:00;;;;;;;0.00;0.00;;;22.30;99.90;;;;;;5017066;28;20997;-68
2022/07/22 12:10:28;;;;;;;0.00;0.00;;;22.20;99.90;;;;;;5011547;28;20845;-70
2022/07/22 12:12:56;;;;;;;0.00;0.00;;;22.10;99.90;;;;;;5013962;28;20458;-70
2022/07/22 12:15:25;;;;;;;0.00;0.00;;;21.90;99.90;;;;;;5003804;28;20986;-71
2022/07/22 12:18:20;;;;;;;0.00;0.00;;;21.80;99.90;;;;;;5009525;28;21134;-73
2022/07/22 12:20:49;;;;;;;0.00;0.00;;;21.70;99.90;;;;;;5008185;28;20445;-73
2022/07/22 12:23:21;;;;;;;0.00;0.00;;;21.70;99.90;;;;;;5008925;28;21166;-72
2022/07/22 12:25:54;;;;;;;0.00;0.00;;;21.70;99.90;;;;;;5012842;28;20439;-71
2022/07/22 12:28:22;;;;;;;0.00;0.00;;;21.70;99.90;;;;;;5022012;28;20549;-71
2022/07/22 12:30:55;;;;;;;0.00;0.00;;;21.70;99.90;;;;;;5016935;28;20452;-71
2022/07/22 12:33:24;;;;;;;0.00;0.00;;;21.80;99.90;;;;;;5013833;28;20474;-73
2022/07/22 12:36:04;;;;;;;0.00;0.00;;;21.90;99.90;;;;;;5009500;28;20570;-72
2022/07/22 12:38:33;;;;;;;0.00;0.00;;;22.00;99.90;;;;;;5013234;28;20473;-73
2022/07/22 12:41:22;;;;;;;0.00;0.00;;;22.00;99.90;;;;;;5007407;28;20565;-74
2022/07/22 12:43:51;;;;;;;0.00;0.00;;;22.00;99.90;;;;;;5015905;28;20951;-74
2022/07/22 12:46:20;;;;;;;0.00;0.00;;;22.10;99.90;;;;;;5009460;28;20666;-75
2022/07/22 12:48:52;;;;;;;0.00;0.00;;;22.20;99.90;;;;;;5011663;28;20558;-74
2022/07/22 12:51:20;;;;;;;0.00;0.00;;;22.40;99.90;;;;;;5011390;28;20460;-74
2022/07/22 12:53:48;;;;;;;0.00;0.00;;;22.40;99.90;;;;;;5010788;28;20472;-71
2022/07/22 12:56:19;;;;;;;0.00;0.00;;;22.40;99.90;;;;;;5020455;28;20488;-76
2022/07/22 12:58:47;;;;;;;0.00;0.00;;;22.30;99.90;;;;;;5011622;28;20815;-76
2022/07/22 13:01:15;;;;;;;0.00;0.00;;;22.30;99.90;;;;;;5021235;28;20478;-77
2022/07/22 13:03:45;;;;;;;0.00;0.00;;;22.30;99.90;;;;;;5003616;28;20468;-78
2022/07/22 13:06:15;;;;;;;0.00;0.00;;;22.20;99.90;;;;;;5006168;28;20495;-84
2022/07/22 13:08:43;;;;;;;0.00;0.00;;;22.20;99.90;;;;;;5006681;28;20557;-71
2022/07/22 13:11:13;;;;;;;0.00;0.00;;;22.20;99.90;;;;;;5009202;28;20593;-77
2022/07/22 13:13:45;;;;;;;0.00;0.00;;;22.10;99.90;;;;;;5017271;28;20984;-77
2022/07/22 13:16:13;;;;;;;0.00;0.00;;;22.10;99.90;;;;;;5015652;28;20629;-75
2022/07/22 13:18:41;;;;;;;0.00;0.00;;;22.00;99.90;;;;;;5020092;28;20485;-77
2022/07/22 13:21:10;;;;;;;0.00;0.00;;;22.10;99.90;;;;;;5021484;28;20823;-72
2022/07/22 13:23:38;;;;;;;0.00;0.00;;;22.20;99.90;;;;;;5017960;28;20465;-73
2022/07/22 13:26:06;;;;;;;0.00;0.00;;;22.20;99.90;;;;;;5011148;28;20456;-73
2022/07/22 13:28:34;;;;;;;0.00;0.00;;;22.30;99.90;;;;;;5006177;28;21016;-72
2022/07/22 13:34:38;;;;;;;0.00;0.00;;;22.30;99.90;;;;;;5322870;22;21004;-90
2022/07/22 13:37:08;;;;;;;0.00;0.00;;;22.40;99.90;;;;;;5056088;28;20958;-91